sensor_id;sensor_type;location;lat;lon;timestamp;temperature;humidity
5786;DHT22;2919;48.630;9.000;2023-03-29T00:00:26;4.70;99.90
5786;DHT22;2919;48.630;9.000;2023-03-29T00:02:52;4.60;99.90
5786;DHT22;2919;48.630;9.000;2023-03-29T00:05:21;4.60;99.90
5786;DHT22;2919;48.630;9.000;2023-03-29T00:07:48;4.70;99.90
5786;DHT22;2919;48.630;9.000;2023-03-29T00:10:21;4.70;99.90
5786;DHT22;2919;48.630;9.000;2023-03-29T00:12:48;4.70;99.90
5786;DHT22;2919;48.630;9.000;2023-03-29T00:15:16;4.70;99.90
5786;DHT22;2919;48.630;9.000;2023-03-29T00:17:42;4.70;99.90
5786;DHT22;2919;48.630;9.000;2023-03-29T00:20:08;4.70;99.90
5786;DHT22;2919;48.630;9.000;2023-03-29T00:22:36;4.70;99.90
5786;DHT22;2919;48.630;9.000;2023-03-29T00:25:02;4.70;99.90
5786;DHT22;2919;48.630;9.000;2023-03-29T00:27:28;4.60;99.90
5786;DHT22;2919;48.630;9.000;2023-03-29T00:29:54;4.60;99.90
5786;DHT22;2919;48.630;9.000;2023-03-29T00:32:20;4.60;99.90
5786;DHT22;2919;48.630;9.000;2023-03-29T00:34:46;4.60;99.90
5786;DHT22;2919;48.630;9.000;2023-03-29T00:37:15;4.60;99.90
5786;DHT22;2919;48.630;9.000;2023-03-29T00:39:41;4.60;99.90
5786;DHT22;2919;48.630;9.000;2023-03-29T00:42:16;4.60;99.90
5786;DHT22;2919;48.630;9.000;2023-03-29T00:50:08;4.70;99.90
5786;DHT22;2919;48.630;9.000;2023-03-29T00:52:37;4.60;99.90
5786;DHT22;2919;48.630;9.000;2023-03-29T00:55:08;4.60;99.90
5786;DHT22;2919;48.630;9.000;2023-03-29T00:57:36;4.60;99.90
5786;DHT22;2919;48.630;9.000;2023-03-29T01:00:04;4.60;99.90
5786;DHT22;2919;48.630;9.000;2023-03-29T01:02:35;4.60;99.90
5786;DHT22;2919;48.630;9.000;2023-03-29T01:05:14;4.60;99.90
5786;DHT22;2919;48.630;9.000;2023-03-29T01:08:00;4.60;99.90
5786;DHT22;2919;48.630;9.000;2023-03-29T01:13:12;4.60;99.90
5786;DHT22;2919;48.630;9.000;2023-03-29T01:15:43;4.50;99.90
5786;DHT22;2919;48.630;9.000;2023-03-29T01:18:10;4.50;99.90
5786;DHT22;2919;48.630;9.000;2023-03-29T01:28:57;4.40;99.90
5786;DHT22;2919;48.630;9.000;2023-03-29T01:31:29;4.40;99.90
5786;DHT22;2919;48.630;9.000;2023-03-29T01:34:06;4.40;99.90
5786;DHT22;2919;48.630;9.000;2023-03-29T01:36:42;4.40;99.90
5786;DHT22;2919;48.630;9.000;2023-03-29T01:39:09;4.40;99.90
5786;DHT22;2919;48.630;9.000;2023-03-29T01:41:49;4.40;99.90
5786;DHT22;2919;48.630;9.000;2023-03-29T01:44:23;4.40;99.90
5786;DHT22;2919;48.630;9.000;2023-03-29T01:46:54;4.40;99.90
5786;DHT22;2919;48.630;9.000;2023-03-29T01:49:52;4.40;99.90
5786;DHT22;2919;48.630;9.000;2023-03-29T01:52:24;4.50;99.90
5786;DHT22;2919;48.630;9.000;2023-03-29T01:55:02;4.50;99.90
5786;DHT22;2919;48.630;9.000;2023-03-29T01:57:29;4.50;99.90
5786;DHT22;2919;48.630;9.000;2023-03-29T01:59:57;4.60;99.90
5786;DHT22;2919;48.630;9.000;2023-03-29T02:02:26;4.50;99.90
5786;DHT22;2919;48.630;9.000;2023-03-29T02:04:54;4.50;99.90
5786;DHT22;2919;48.630;9.000;2023-03-29T02:07:24;4.50;99.90
5786;DHT22;2919;48.630;9.000;2023-03-29T02:09:51;4.50;99.90
5786;DHT22;2919;48.630;9.000;2023-03-29T02:12:18;4.50;99.90
5786;DHT22;2919;48.630;9.000;2023-03-29T02:14:45;4.60;99.90
5786;DHT22;2919;48.630;9.000;2023-03-29T02:17:21;4.70;99.90
5786;DHT22;2919;48.630;9.000;2023-03-29T02:19:53;4.90;99.90
5786;DHT22;2919;48.630;9.000;2023-03-29T02:22:27;5.00;99.90
5786;DHT22;2919;48.630;9.000;2023-03-29T02:24:57;5.10;99.90
5786;DHT22;2919;48.630;9.000;2023-03-29T02:27:25;5.30;99.90
5786;DHT22;2919;48.630;9.000;2023-03-29T02:29:52;5.40;99.90
5786;DHT22;2919;48.630;9.000;2023-03-29T02:32:23;5.40;99.90
5786;DHT22;2919;48.630;9.000;2023-03-29T02:35:01;5.40;99.90
5786;DHT22;2919;48.630;9.000;2023-03-29T02:37:30;5.50;99.90
5786;DHT22;2919;48.630;9.000;2023-03-29T02:39:59;5.60;99.90
5786;DHT22;2919;48.630;9.000;2023-03-29T02:42:26;5.60;99.90
5786;DHT22;2919;48.630;9.000;2023-03-29T02:44:55;5.70;99.90
5786;DHT22;2919;48.630;9.000;2023-03-29T02:47:33;5.70;99.90
5786;DHT22;2919;48.630;9.000;2023-03-29T02:50:00;5.80;99.90
5786;DHT22;2919;48.630;9.000;2023-03-29T02:52:33;5.80;99.90
5786;DHT22;2919;48.630;9.000;2023-03-29T02:55:01;5.80;99.90
5786;DHT22;2919;48.630;9.000;2023-03-29T02:57:28;5.80;99.90
5786;DHT22;2919;48.630;9.000;2023-03-29T02:59:57;5.80;99.90
5786;DHT22;2919;48.630;9.000;2023-03-29T03:02:25;5.90;99.90
5786;DHT22;2919;48.630;9.000;2023-03-29T03:04:52;5.90;99.90
5786;DHT22;2919;48.630;9.000;2023-03-29T03:07:18;5.90;99.90
5786;DHT22;2919;48.630;9.000;2023-03-29T03:09:44;5.90;99.90
5786;DHT22;2919;48.630;9.000;2023-03-29T03:12:11;6.00;99.90
5786;DHT22;2919;48.630;9.000;2023-03-29T03:14:36;6.00;99.90
5786;DHT22;2919;48.630;9.000;2023-03-29T03:17:02;6.00;99.90
5786;DHT22;2919;48.630;9.000;2023-03-29T03:19:28;6.00;99.90
5786;DHT22;2919;48.630;9.000;2023-03-29T03:21:54;6.00;99.90
5786;DHT22;2919;48.630;9.000;2023-03-29T03:24:20;6.00;99.90
5786;DHT22;2919;48.630;9.000;2023-03-29T03:26:46;6.00;99.90
5786;DHT22;2919;48.630;9.000;2023-03-29T03:29:12;6.10;99.90
5786;DHT22;2919;48.630;9.000;2023-03-29T03:31:38;6.00;99.90
5786;DHT22;2919;48.630;9.000;2023-03-29T03:34:07;6.00;99.90
5786;DHT22;2919;48.630;9.000;2023-03-29T03:36:33;6.10;99.90
5786;DHT22;2919;48.630;9.000;2023-03-29T03:39:00;6.20;99.90
5786;DHT22;2919;48.630;9.000;2023-03-29T03:41:27;6.10;99.90
5786;DHT22;2919;48.630;9.000;2023-03-29T03:43:52;6.10;99.90
5786;DHT22;2919;48.630;9.000;2023-03-29T03:46:18;6.20;99.90
5786;DHT22;2919;48.630;9.000;2023-03-29T03:48:45;6.10;99.90
5786;DHT22;2919;48.630;9.000;2023-03-29T03:51:11;6.10;99.90
5786;DHT22;2919;48.630;9.000;2023-03-29T03:53:37;6.10;99.90
5786;DHT22;2919;48.630;9.000;2023-03-29T03:56:03;6.10;99.90
5786;DHT22;2919;48.630;9.000;2023-03-29T03:58:38;6.10;99.90
5786;DHT22;2919;48.630;9.000;2023-03-29T04:01:04;6.10;99.90
5786;DHT22;2919;48.630;9.000;2023-03-29T04:03:30;6.10;99.90
5786;DHT22;2919;48.630;9.000;2023-03-29T04:05:59;6.10;99.90
5786;DHT22;2919;48.630;9.000;2023-03-29T04:08:25;6.10;99.90
5786;DHT22;2919;48.630;9.000;2023-03-29T04:10:52;6.10;99.90
5786;DHT22;2919;48.630;9.000;2023-03-29T04:13:19;6.10;99.90
5786;DHT22;2919;48.630;9.000;2023-03-29T04:15:45;6.10;99.90
5786;DHT22;2919;48.630;9.000;2023-03-29T04:18:14;6.10;99.90
5786;DHT22;2919;48.630;9.000;2023-03-29T04:20:40;6.10;99.90
5786;DHT22;2919;48.630;9.000;2023-03-29T04:23:06;6.20;99.90
5786;DHT22;2919;48.630;9.000;2023-03-29T04:25:31;6.20;99.90
5786;DHT22;2919;48.630;9.000;2023-03-29T04:27:57;6.20;99.90
5786;DHT22;2919;48.630;9.000;2023-03-29T04:30:23;6.20;99.90
5786;DHT22;2919;48.630;9.000;2023-03-29T04:32:48;6.20;99.90
5786;DHT22;2919;48.630;9.000;2023-03-29T04:35:14;6.10;99.90
5786;DHT22;2919;48.630;9.000;2023-03-29T04:37:40;6.10;99.90
5786;DHT22;2919;48.630;9.000;2023-03-29T04:40:07;6.10;99.90
5786;DHT22;2919;48.630;9.000;2023-03-29T04:42:42;6.10;99.90
5786;DHT22;2919;48.630;9.000;2023-03-29T04:45:09;6.10;99.90
5786;DHT22;2919;48.630;9.000;2023-03-29T04:47:35;6.10;99.90
5786;DHT22;2919;48.630;9.000;2023-03-29T04:50:04;6.10;99.90
5786;DHT22;2919;48.630;9.000;2023-03-29T04:52:31;6.10;99.90
5786;DHT22;2919;48.630;9.000;2023-03-29T04:54:58;6.10;99.90
5786;DHT22;2919;48.630;9.000;2023-03-29T04:57:24;6.10;99.90
5786;DHT22;2919;48.630;9.000;2023-03-29T04:59:50;6.20;99.90
5786;DHT22;2919;48.630;9.000;2023-03-29T05:02:15;6.20;99.90
5786;DHT22;2919;48.630;9.000;2023-03-29T05:04:41;6.20;99.90
5786;DHT22;2919;48.630;9.000;2023-03-29T05:07:07;6.20;99.90
5786;DHT22;2919;48.630;9.000;2023-03-29T05:09:32;6.20;99.90
5786;DHT22;2919;48.630;9.000;2023-03-29T05:12:00;6.30;99.90
5786;DHT22;2919;48.630;9.000;2023-03-29T05:14:25;6.30;99.90
5786;DHT22;2919;48.630;9.000;2023-03-29T05:16:51;6.40;99.90
5786;DHT22;2919;48.630;9.000;2023-03-29T05:19:16;6.40;99.90
5786;DHT22;2919;48.630;9.000;2023-03-29T05:21:43;6.40;99.80
5786;DHT22;2919;48.630;9.000;2023-03-29T05:24:09;6.50;99.30
5786;DHT22;2919;48.630;9.000;2023-03-29T05:26:35;6.70;99.10
5786;DHT22;2919;48.630;9.000;2023-03-29T05:29:00;6.70;99.20
5786;DHT22;2919;48.630;9.000;2023-03-29T05:31:26;6.80;98.80
5786;DHT22;2919;48.630;9.000;2023-03-29T05:33:52;6.90;98.80
5786;DHT22;2919;48.630;9.000;2023-03-29T05:36:18;6.90;98.90
5786;DHT22;2919;48.630;9.000;2023-03-29T05:38:44;6.90;98.90
5786;DHT22;2919;48.630;9.000;2023-03-29T05:41:11;7.00;99.00
5786;DHT22;2919;48.630;9.000;2023-03-29T05:43:37;7.00;99.20
5786;DHT22;2919;48.630;9.000;2023-03-29T05:46:03;7.00;99.00
5786;DHT22;2919;48.630;9.000;2023-03-29T05:48:30;7.00;99.10
5786;DHT22;2919;48.630;9.000;2023-03-29T05:50:56;7.10;99.20
5786;DHT22;2919;48.630;9.000;2023-03-29T05:53:24;7.10;99.40
5786;DHT22;2919;48.630;9.000;2023-03-29T05:55:50;7.10;99.40
5786;DHT22;2919;48.630;9.000;2023-03-29T05:58:16;7.10;99.00
5786;DHT22;2919;48.630;9.000;2023-03-29T06:00:44;7.10;99.50
5786;DHT22;2919;48.630;9.000;2023-03-29T06:03:14;7.20;99.20
5786;DHT22;2919;48.630;9.000;2023-03-29T06:05:46;7.20;99.20
5786;DHT22;2919;48.630;9.000;2023-03-29T06:08:13;7.30;99.70
5786;DHT22;2919;48.630;9.000;2023-03-29T06:10:40;7.20;99.90
5786;DHT22;2919;48.630;9.000;2023-03-29T06:13:06;7.30;99.90
5786;DHT22;2919;48.630;9.000;2023-03-29T06:15:32;7.40;99.90
5786;DHT22;2919;48.630;9.000;2023-03-29T06:17:59;7.40;99.90
5786;DHT22;2919;48.630;9.000;2023-03-29T06:20:25;7.50;99.90
5786;DHT22;2919;48.630;9.000;2023-03-29T06:22:50;7.50;99.90
5786;DHT22;2919;48.630;9.000;2023-03-29T06:25:17;7.60;99.90
5786;DHT22;2919;48.630;9.000;2023-03-29T06:27:44;7.60;99.90
5786;DHT22;2919;48.630;9.000;2023-03-29T06:30:13;7.70;99.90
5786;DHT22;2919;48.630;9.000;2023-03-29T06:32:43;7.80;99.90
5786;DHT22;2919;48.630;9.000;2023-03-29T06:35:09;7.80;99.90
5786;DHT22;2919;48.630;9.000;2023-03-29T06:37:35;7.90;99.20
5786;DHT22;2919;48.630;9.000;2023-03-29T06:40:01;8.00;99.50
5786;DHT22;2919;48.630;9.000;2023-03-29T06:42:30;7.90;99.00
5786;DHT22;2919;48.630;9.000;2023-03-29T06:44:56;7.90;98.90
5786;DHT22;2919;48.630;9.000;2023-03-29T06:47:22;7.80;98.80
5786;DHT22;2919;48.630;9.000;2023-03-29T06:49:53;7.80;98.40
5786;DHT22;2919;48.630;9.000;2023-03-29T06:52:19;7.80;98.70
5786;DHT22;2919;48.630;9.000;2023-03-29T06:54:44;7.90;99.20
5786;DHT22;2919;48.630;9.000;2023-03-29T06:57:10;7.90;99.30
5786;DHT22;2919;48.630;9.000;2023-03-29T06:59:37;7.90;99.30
5786;DHT22;2919;48.630;9.000;2023-03-29T07:02:03;8.00;98.90
5786;DHT22;2919;48.630;9.000;2023-03-29T07:04:28;8.10;98.50
5786;DHT22;2919;48.630;9.000;2023-03-29T07:06:56;8.00;99.10
5786;DHT22;2919;48.630;9.000;2023-03-29T07:09:29;8.10;98.90
5786;DHT22;2919;48.630;9.000;2023-03-29T07:11:58;8.20;99.10
5786;DHT22;2919;48.630;9.000;2023-03-29T07:14:25;8.40;98.70
5786;DHT22;2919;48.630;9.000;2023-03-29T07:16:56;8.30;98.50
5786;DHT22;2919;48.630;9.000;2023-03-29T07:19:25;8.50;97.90
5786;DHT22;2919;48.630;9.000;2023-03-29T07:21:53;8.70;98.30
5786;DHT22;2919;48.630;9.000;2023-03-29T07:24:19;8.70;98.00
5786;DHT22;2919;48.630;9.000;2023-03-29T07:26:45;8.80;97.80
5786;DHT22;2919;48.630;9.000;2023-03-29T07:29:11;8.80;97.40
5786;DHT22;2919;48.630;9.000;2023-03-29T07:31:37;9.00;97.40
5786;DHT22;2919;48.630;9.000;2023-03-29T07:34:08;9.00;96.90
5786;DHT22;2919;48.630;9.000;2023-03-29T07:36:38;9.00;96.90
5786;DHT22;2919;48.630;9.000;2023-03-29T07:39:05;8.90;96.90
5786;DHT22;2919;48.630;9.000;2023-03-29T07:41:30;8.90;97.00
5786;DHT22;2919;48.630;9.000;2023-03-29T07:43:56;8.90;96.90
5786;DHT22;2919;48.630;9.000;2023-03-29T07:46:22;8.90;96.80
5786;DHT22;2919;48.630;9.000;2023-03-29T07:48:47;8.80;96.80
5786;DHT22;2919;48.630;9.000;2023-03-29T07:51:13;8.80;96.70
5786;DHT22;2919;48.630;9.000;2023-03-29T07:53:39;8.80;96.70
5786;DHT22;2919;48.630;9.000;2023-03-29T07:56:05;8.80;96.50
5786;DHT22;2919;48.630;9.000;2023-03-29T07:58:31;8.80;96.50
5786;DHT22;2919;48.630;9.000;2023-03-29T08:00:58;8.90;96.60
5786;DHT22;2919;48.630;9.000;2023-03-29T08:03:24;8.80;96.60
5786;DHT22;2919;48.630;9.000;2023-03-29T08:05:52;8.90;96.30
5786;DHT22;2919;48.630;9.000;2023-03-29T08:08:17;9.00;96.40
5786;DHT22;2919;48.630;9.000;2023-03-29T08:10:43;9.00;96.80
5786;DHT22;2919;48.630;9.000;2023-03-29T08:13:09;9.10;96.40
5786;DHT22;2919;48.630;9.000;2023-03-29T08:15:36;9.20;96.20
5786;DHT22;2919;48.630;9.000;2023-03-29T08:18:03;9.30;96.10
5786;DHT22;2919;48.630;9.000;2023-03-29T08:20:29;9.30;95.90
5786;DHT22;2919;48.630;9.000;2023-03-29T08:22:55;9.40;95.40
5786;DHT22;2919;48.630;9.000;2023-03-29T08:25:21;9.40;95.60
5786;DHT22;2919;48.630;9.000;2023-03-29T08:27:46;9.40;95.30
5786;DHT22;2919;48.630;9.000;2023-03-29T08:30:12;9.40;95.10
5786;DHT22;2919;48.630;9.000;2023-03-29T08:32:39;9.40;94.60
5786;DHT22;2919;48.630;9.000;2023-03-29T08:35:06;9.50;94.80
5786;DHT22;2919;48.630;9.000;2023-03-29T08:37:34;9.50;94.40
5786;DHT22;2919;48.630;9.000;2023-03-29T08:40:01;9.50;94.60
5786;DHT22;2919;48.630;9.000;2023-03-29T08:45:20;9.60;94.50
5786;DHT22;2919;48.630;9.000;2023-03-29T08:47:53;9.70;94.20
5786;DHT22;2919;48.630;9.000;2023-03-29T08:50:23;9.80;94.40
5786;DHT22;2919;48.630;9.000;2023-03-29T08:53:11;9.80;94.20
5786;DHT22;2919;48.630;9.000;2023-03-29T08:55:45;9.90;94.30
5786;DHT22;2919;48.630;9.000;2023-03-29T08:58:16;10.00;93.70
5786;DHT22;2919;48.630;9.000;2023-03-29T09:00:49;10.10;93.90
5786;DHT22;2919;48.630;9.000;2023-03-29T09:03:23;10.10;93.90
5786;DHT22;2919;48.630;9.000;2023-03-29T09:06:02;10.20;93.70
5786;DHT22;2919;48.630;9.000;2023-03-29T09:08:29;10.20;93.40
5786;DHT22;2919;48.630;9.000;2023-03-29T09:19:08;10.30;92.40
5786;DHT22;2919;48.630;9.000;2023-03-29T09:21:43;10.50;92.40
5786;DHT22;2919;48.630;9.000;2023-03-29T09:26:55;11.10;92.90
5786;DHT22;2919;48.630;9.000;2023-03-29T09:29:45;11.40;92.40
5786;DHT22;2919;48.630;9.000;2023-03-29T09:32:22;11.70;91.70
5786;DHT22;2919;48.630;9.000;2023-03-29T09:35:08;11.80;91.60
5786;DHT22;2919;48.630;9.000;2023-03-29T09:37:37;11.70;90.80
5786;DHT22;2919;48.630;9.000;2023-03-29T09:40:14;11.60;90.90
5786;DHT22;2919;48.630;9.000;2023-03-29T09:42:42;11.70;91.10
5786;DHT22;2919;48.630;9.000;2023-03-29T09:45:09;11.80;90.90
5786;DHT22;2919;48.630;9.000;2023-03-29T09:47:38;11.90;91.30
5786;DHT22;2919;48.630;9.000;2023-03-29T09:50:29;11.90;90.10
5786;DHT22;2919;48.630;9.000;2023-03-29T09:52:56;12.00;90.70
5786;DHT22;2919;48.630;9.000;2023-03-29T09:55:26;12.10;90.30
5786;DHT22;2919;48.630;9.000;2023-03-29T09:57:54;12.10;90.40
5786;DHT22;2919;48.630;9.000;2023-03-29T10:00:20;12.20;90.30
5786;DHT22;2919;48.630;9.000;2023-03-29T10:02:51;12.20;90.40
5786;DHT22;2919;48.630;9.000;2023-03-29T10:05:17;12.40;90.90
5786;DHT22;2919;48.630;9.000;2023-03-29T10:08:00;12.40;90.00
5786;DHT22;2919;48.630;9.000;2023-03-29T10:10:33;12.40;88.90
5786;DHT22;2919;48.630;9.000;2023-03-29T10:13:04;12.50;90.40
5786;DHT22;2919;48.630;9.000;2023-03-29T10:15:31;12.70;88.90
5786;DHT22;2919;48.630;9.000;2023-03-29T10:18:04;13.00;89.00
5786;DHT22;2919;48.630;9.000;2023-03-29T10:20:34;13.20;89.30
5786;DHT22;2919;48.630;9.000;2023-03-29T10:23:00;13.30;89.70
5786;DHT22;2919;48.630;9.000;2023-03-29T10:25:31;13.40;88.40
5786;DHT22;2919;48.630;9.000;2023-03-29T10:28:06;13.50;88.40
5786;DHT22;2919;48.630;9.000;2023-03-29T10:30:36;13.70;90.10
5786;DHT22;2919;48.630;9.000;2023-03-29T10:33:05;14.10;89.60
5786;DHT22;2919;48.630;9.000;2023-03-29T10:35:38;14.30;85.00
5786;DHT22;2919;48.630;9.000;2023-03-29T10:38:10;14.40;85.40
5786;DHT22;2919;48.630;9.000;2023-03-29T10:40:48;14.30;84.60
5786;DHT22;2919;48.630;9.000;2023-03-29T10:45:41;14.00;85.70
5786;DHT22;2919;48.630;9.000;2023-03-29T10:48:13;13.90;85.90
5786;DHT22;2919;48.630;9.000;2023-03-29T10:50:39;14.20;87.90
5786;DHT22;2919;48.630;9.000;2023-03-29T10:53:26;14.10;86.00
5786;DHT22;2919;48.630;9.000;2023-03-29T10:59:00;14.30;85.10
5786;DHT22;2919;48.630;9.000;2023-03-29T11:07:18;14.60;84.10
5786;DHT22;2919;48.630;9.000;2023-03-29T11:13:08;15.00;82.80
5786;DHT22;2919;48.630;9.000;2023-03-29T11:29:20;15.30;79.60
5786;DHT22;2919;48.630;9.000;2023-03-29T11:34:34;15.30;75.70
5786;DHT22;2919;48.630;9.000;2023-03-29T11:37:12;15.20;76.90
5786;DHT22;2919;48.630;9.000;2023-03-29T11:42:32;14.80;77.00
5786;DHT22;2919;48.630;9.000;2023-03-29T11:45:01;14.80;76.90
5786;DHT22;2919;48.630;9.000;2023-03-29T11:47:32;15.10;78.40
5786;DHT22;2919;48.630;9.000;2023-03-29T11:50:12;15.40;74.80
5786;DHT22;2919;48.630;9.000;2023-03-29T11:52:43;15.60;76.20
5786;DHT22;2919;48.630;9.000;2023-03-29T11:55:28;15.70;75.20
5786;DHT22;2919;48.630;9.000;2023-03-29T11:58:05;15.60;75.50
5786;DHT22;2919;48.630;9.000;2023-03-29T12:05:58;15.10;74.70
5786;DHT22;2919;48.630;9.000;2023-03-29T12:08:32;15.00;75.90
5786;DHT22;2919;48.630;9.000;2023-03-29T12:13:52;14.90;74.90
5786;DHT22;2919;48.630;9.000;2023-03-29T12:19:30;14.80;76.20
5786;DHT22;2919;48.630;9.000;2023-03-29T12:22:00;14.80;75.60
5786;DHT22;2919;48.630;9.000;2023-03-29T12:24:30;14.80;77.00
5786;DHT22;2919;48.630;9.000;2023-03-29T12:27:18;14.70;77.40
5786;DHT22;2919;48.630;9.000;2023-03-29T12:30:07;14.70;76.90
5786;DHT22;2919;48.630;9.000;2023-03-29T12:38:26;14.50;78.00
5786;DHT22;2919;48.630;9.000;2023-03-29T12:40:58;14.40;82.20
5786;DHT22;2919;48.630;9.000;2023-03-29T12:43:36;14.10;84.00
5786;DHT22;2919;48.630;9.000;2023-03-29T12:48:36;14.70;81.90
5786;DHT22;2919;48.630;9.000;2023-03-29T12:51:05;15.00;81.10
5786;DHT22;2919;48.630;9.000;2023-03-29T12:53:38;15.10;80.00
5786;DHT22;2919;48.630;9.000;2023-03-29T13:01:51;15.00;79.00
5786;DHT22;2919;48.630;9.000;2023-03-29T13:11:51;14.80;75.40
5786;DHT22;2919;48.630;9.000;2023-03-29T13:14:19;14.80;77.00
5786;DHT22;2919;48.630;9.000;2023-03-29T13:16:46;14.60;76.10
5786;DHT22;2919;48.630;9.000;2023-03-29T13:27:41;14.30;86.60
5786;DHT22;2919;48.630;9.000;2023-03-29T13:33:02;13.60;89.70
5786;DHT22;2919;48.630;9.000;2023-03-29T13:38:27;13.20;92.20
5786;DHT22;2919;48.630;9.000;2023-03-29T13:40:59;13.10;94.20
5786;DHT22;2919;48.630;9.000;2023-03-29T13:43:35;13.00;94.50
5786;DHT22;2919;48.630;9.000;2023-03-29T13:48:45;13.00;94.30
5786;DHT22;2919;48.630;9.000;2023-03-29T13:54:02;13.30;92.90
5786;DHT22;2919;48.630;9.000;2023-03-29T13:56:35;13.40;92.20
5786;DHT22;2919;48.630;9.000;2023-03-29T13:59:14;13.50;93.00
5786;DHT22;2919;48.630;9.000;2023-03-29T14:01:51;13.50;92.40
5786;DHT22;2919;48.630;9.000;2023-03-29T14:04:24;13.50;92.80
5786;DHT22;2919;48.630;9.000;2023-03-29T14:06:53;13.60;93.50
5786;DHT22;2919;48.630;9.000;2023-03-29T14:09:30;13.70;90.60
5786;DHT22;2919;48.630;9.000;2023-03-29T14:11:59;13.70;90.70
5786;DHT22;2919;48.630;9.000;2023-03-29T14:14:26;13.80;91.40
5786;DHT22;2919;48.630;9.000;2023-03-29T14:16:55;13.90;91.50
5786;DHT22;2919;48.630;9.000;2023-03-29T14:19:31;14.00;90.20
5786;DHT22;2919;48.630;9.000;2023-03-29T14:22:00;14.10;90.80
5786;DHT22;2919;48.630;9.000;2023-03-29T14:24:33;14.20;90.30
5786;DHT22;2919;48.630;9.000;2023-03-29T14:27:03;14.30;90.30
5786;DHT22;2919;48.630;9.000;2023-03-29T14:29:32;14.30;90.50
5786;DHT22;2919;48.630;9.000;2023-03-29T14:32:15;14.40;89.50
5786;DHT22;2919;48.630;9.000;2023-03-29T14:34:42;14.50;88.70
5786;DHT22;2919;48.630;9.000;2023-03-29T14:37:12;14.60;88.10
5786;DHT22;2919;48.630;9.000;2023-03-29T14:39:40;14.60;87.40
5786;DHT22;2919;48.630;9.000;2023-03-29T14:42:20;14.60;89.70
5786;DHT22;2919;48.630;9.000;2023-03-29T14:44:49;14.80;87.30
5786;DHT22;2919;48.630;9.000;2023-03-29T14:47:22;14.90;86.30
5786;DHT22;2919;48.630;9.000;2023-03-29T14:49:49;15.10;84.40
5786;DHT22;2919;48.630;9.000;2023-03-29T14:52:16;15.20;83.50
5786;DHT22;2919;48.630;9.000;2023-03-29T14:54:50;15.30;85.50
5786;DHT22;2919;48.630;9.000;2023-03-29T14:57:17;15.40;85.80
5786;DHT22;2919;48.630;9.000;2023-03-29T15:02:37;15.50;84.50
5786;DHT22;2919;48.630;9.000;2023-03-29T15:05:35;15.40;84.80
5786;DHT22;2919;48.630;9.000;2023-03-29T15:08:02;15.50;83.10
5786;DHT22;2919;48.630;9.000;2023-03-29T15:10:31;15.50;83.10
5786;DHT22;2919;48.630;9.000;2023-03-29T15:13:00;15.70;82.60
5786;DHT22;2919;48.630;9.000;2023-03-29T15:15:26;15.90;84.20
5786;DHT22;2919;48.630;9.000;2023-03-29T15:17:52;16.10;83.00
5786;DHT22;2919;48.630;9.000;2023-03-29T15:25:26;16.40;79.40
5786;DHT22;2919;48.630;9.000;2023-03-29T15:27:55;16.20;80.60
5786;DHT22;2919;48.630;9.000;2023-03-29T15:30:30;16.20;81.50
5786;DHT22;2919;48.630;9.000;2023-03-29T15:33:31;16.10;80.50
5786;DHT22;2919;48.630;9.000;2023-03-29T15:35:57;16.10;81.30
5786;DHT22;2919;48.630;9.000;2023-03-29T15:38:23;15.90;80.60
5786;DHT22;2919;48.630;9.000;2023-03-29T15:40:49;15.80;79.30
5786;DHT22;2919;48.630;9.000;2023-03-29T15:43:14;15.60;80.80
5786;DHT22;2919;48.630;9.000;2023-03-29T15:45:40;15.50;81.50
5786;DHT22;2919;48.630;9.000;2023-03-29T15:48:21;15.40;81.90
5786;DHT22;2919;48.630;9.000;2023-03-29T15:50:47;15.40;82.70
5786;DHT22;2919;48.630;9.000;2023-03-29T15:53:13;15.30;82.70
5786;DHT22;2919;48.630;9.000;2023-03-29T15:55:43;15.20;85.10
5786;DHT22;2919;48.630;9.000;2023-03-29T15:58:15;15.20;84.40
5786;DHT22;2919;48.630;9.000;2023-03-29T16:00:42;15.20;84.60
5786;DHT22;2919;48.630;9.000;2023-03-29T16:03:11;15.10;84.80
5786;DHT22;2919;48.630;9.000;2023-03-29T16:05:39;15.00;85.50
5786;DHT22;2919;48.630;9.000;2023-03-29T16:08:05;14.90;86.20
5786;DHT22;2919;48.630;9.000;2023-03-29T16:10:31;14.90;86.20
5786;DHT22;2919;48.630;9.000;2023-03-29T16:12:57;14.90;86.30
5786;DHT22;2919;48.630;9.000;2023-03-29T16:15:23;14.90;84.70
5786;DHT22;2919;48.630;9.000;2023-03-29T16:17:51;14.80;84.60
5786;DHT22;2919;48.630;9.000;2023-03-29T16:20:17;14.80;85.90
5786;DHT22;2919;48.630;9.000;2023-03-29T16:22:47;14.80;84.20
5786;DHT22;2919;48.630;9.000;2023-03-29T16:25:15;14.80;84.40
5786;DHT22;2919;48.630;9.000;2023-03-29T16:27:42;14.80;82.20
5786;DHT22;2919;48.630;9.000;2023-03-29T16:30:09;14.90;84.10
5786;DHT22;2919;48.630;9.000;2023-03-29T16:32:35;14.90;84.40
5786;DHT22;2919;48.630;9.000;2023-03-29T16:35:08;14.90;84.90
5786;DHT22;2919;48.630;9.000;2023-03-29T16:37:37;14.80;86.20
5786;DHT22;2919;48.630;9.000;2023-03-29T16:40:03;14.70;85.60
5786;DHT22;2919;48.630;9.000;2023-03-29T16:42:32;14.70;84.80
5786;DHT22;2919;48.630;9.000;2023-03-29T16:44:58;14.70;85.80
5786;DHT22;2919;48.630;9.000;2023-03-29T16:47:26;14.60;85.80
5786;DHT22;2919;48.630;9.000;2023-03-29T16:49:52;14.60;88.00
5786;DHT22;2919;48.630;9.000;2023-03-29T16:52:17;14.50;86.10
5786;DHT22;2919;48.630;9.000;2023-03-29T16:54:43;14.50;86.90
5786;DHT22;2919;48.630;9.000;2023-03-29T16:57:09;14.40;87.40
5786;DHT22;2919;48.630;9.000;2023-03-29T16:59:34;14.40;87.00
5786;DHT22;2919;48.630;9.000;2023-03-29T17:02:00;14.30;86.50
5786;DHT22;2919;48.630;9.000;2023-03-29T17:04:27;14.30;86.30
5786;DHT22;2919;48.630;9.000;2023-03-29T17:06:53;14.40;85.50
5786;DHT22;2919;48.630;9.000;2023-03-29T17:09:18;14.40;84.50
5786;DHT22;2919;48.630;9.000;2023-03-29T17:11:44;14.40;85.10
5786;DHT22;2919;48.630;9.000;2023-03-29T17:14:10;14.40;84.60
5786;DHT22;2919;48.630;9.000;2023-03-29T17:16:35;14.40;85.10
5786;DHT22;2919;48.630;9.000;2023-03-29T17:19:01;14.30;86.20
5786;DHT22;2919;48.630;9.000;2023-03-29T17:21:27;14.30;85.50
5786;DHT22;2919;48.630;9.000;2023-03-29T17:23:53;14.20;85.20
5786;DHT22;2919;48.630;9.000;2023-03-29T17:26:19;14.20;87.10
5786;DHT22;2919;48.630;9.000;2023-03-29T17:28:45;14.10;87.30
5786;DHT22;2919;48.630;9.000;2023-03-29T17:31:11;14.10;88.10
5786;DHT22;2919;48.630;9.000;2023-03-29T17:33:36;14.00;88.00
5786;DHT22;2919;48.630;9.000;2023-03-29T17:36:03;13.90;87.40
5786;DHT22;2919;48.630;9.000;2023-03-29T17:38:29;13.90;88.50
5786;DHT22;2919;48.630;9.000;2023-03-29T17:40:58;13.80;88.90
5786;DHT22;2919;48.630;9.000;2023-03-29T17:43:24;13.80;87.90
5786;DHT22;2919;48.630;9.000;2023-03-29T17:45:53;13.70;89.00
5786;DHT22;2919;48.630;9.000;2023-03-29T17:48:19;13.70;87.90
5786;DHT22;2919;48.630;9.000;2023-03-29T17:50:45;13.70;87.40
5786;DHT22;2919;48.630;9.000;2023-03-29T17:53:11;13.70;88.60
5786;DHT22;2919;48.630;9.000;2023-03-29T17:55:40;13.70;88.40
5786;DHT22;2919;48.630;9.000;2023-03-29T17:58:06;13.70;88.90
5786;DHT22;2919;48.630;9.000;2023-03-29T18:00:32;13.70;88.30
5786;DHT22;2919;48.630;9.000;2023-03-29T18:02:58;13.70;88.10
5786;DHT22;2919;48.630;9.000;2023-03-29T18:05:25;13.70;88.30
5786;DHT22;2919;48.630;9.000;2023-03-29T18:07:50;13.60;87.30
5786;DHT22;2919;48.630;9.000;2023-03-29T18:10:16;13.70;87.10
5786;DHT22;2919;48.630;9.000;2023-03-29T18:12:42;13.70;87.30
5786;DHT22;2919;48.630;9.000;2023-03-29T18:15:08;13.70;87.00
5786;DHT22;2919;48.630;9.000;2023-03-29T18:17:34;13.80;86.30
5786;DHT22;2919;48.630;9.000;2023-03-29T18:20:00;13.90;85.40
5786;DHT22;2919;48.630;9.000;2023-03-29T18:22:25;13.90;85.50
5786;DHT22;2919;48.630;9.000;2023-03-29T18:24:51;13.90;85.10